createdAt,value
2023-11-18T00:01:23.625Z,98559.95
2023-11-18T00:04:17.243Z,98564.23
2023-11-18T00:07:06.146Z,98565.17
2023-11-18T00:09:53.849Z,98568.24
2023-11-18T00:12:43.224Z,98564.80
2023-11-18T00:15:30.611Z,98570.17
2023-11-18T00:18:17.739Z,98570.41
2023-11-18T00:21:05.795Z,98571.97
2023-11-18T00:23:54.479Z,98574.38
2023-11-18T00:26:41.057Z,98572.14
2023-11-18T00:29:28.252Z,98571.15
2023-11-18T00:32:15.665Z,98574.32
2023-11-18T00:35:05.941Z,98575.54
2023-11-18T00:37:53.734Z,98579.17
2023-11-18T00:40:40.552Z,98582.92
2023-11-18T00:43:27.738Z,98588.29
2023-11-18T00:46:14.522Z,98584.27
2023-11-18T00:49:01.676Z,98581.52
2023-11-18T00:51:48.848Z,98583.70
2023-11-18T00:54:37.850Z,98584.20
2023-11-18T00:57:24.726Z,98582.88
2023-11-18T01:00:15.516Z,98579.88
2023-11-18T01:03:02.735Z,98579.05
2023-11-18T01:05:50.005Z,98577.06
2023-11-18T01:08:36.899Z,98577.74
2023-11-18T01:11:23.613Z,98578.42
2023-11-18T01:14:10.884Z,98576.92
2023-11-18T01:16:58.001Z,98573.23
2023-11-18T01:19:45.367Z,98575.30
2023-11-18T01:22:32.527Z,98573.65
2023-11-18T01:25:20.173Z,98569.29
2023-11-18T01:28:07.692Z,98573.70
2023-11-18T01:30:54.744Z,98568.52
2023-11-18T01:33:42.502Z,98567.44
2023-11-18T01:36:31.658Z,98565.96
2023-11-18T01:39:19.407Z,98565.10
2023-11-18T01:42:07.800Z,98568.23
2023-11-18T01:44:57.917Z,98567.49
2023-11-18T01:47:46.806Z,98567.04
2023-11-18T01:50:33.514Z,98566.86
2023-11-18T01:53:21.825Z,98565.60
2023-11-18T01:56:10.005Z,98566.39
2023-11-18T01:59:00.440Z,98563.83
2023-11-18T02:01:50.562Z,98563.43
2023-11-18T02:04:38.006Z,98565.35
2023-11-18T02:07:25.624Z,98568.64
2023-11-18T02:10:12.865Z,98565.98
2023-11-18T02:13:07.263Z,98568.33
2023-11-18T02:15:56.148Z,98569.38
2023-11-18T02:18:47.020Z,98569.52
2023-11-18T02:21:35.676Z,98566.16
2023-11-18T02:24:31.818Z,98569.37
2023-11-18T02:27:21.599Z,98566.58
2023-11-18T02:30:13.764Z,98571.77
2023-11-18T02:33:16.030Z,98572.09
2023-11-18T02:36:11.856Z,98573.88
2023-11-18T02:38:59.712Z,98574.13
2023-11-18T02:41:49.818Z,98578.59
2023-11-18T02:44:37.942Z,98578.02
2023-11-18T02:47:25.893Z,98581.80
2023-11-18T02:50:14.911Z,98581.16
2023-11-18T02:53:02.136Z,98582.66
2023-11-18T02:55:49.479Z,98590.17
2023-11-18T02:58:36.453Z,98594.90
2023-11-18T03:01:26.455Z,98592.79
2023-11-18T03:04:15.328Z,98590.04
2023-11-18T03:07:02.253Z,98590.58
2023-11-18T03:09:49.003Z,98595.36
2023-11-18T03:12:35.782Z,98599.61
2023-11-18T03:15:24.273Z,98600.17
2023-11-18T03:18:12.104Z,98603.25
2023-11-18T03:20:58.919Z,98609.17
2023-11-18T03:23:46.752Z,98612.40
2023-11-18T03:26:33.746Z,98610.79
2023-11-18T03:29:21.453Z,98610.84
2023-11-18T03:32:08.736Z,98609.81
2023-11-18T03:35:00.607Z,98614.20
2023-11-18T03:37:48.036Z,98617.09
2023-11-18T03:40:36.820Z,98616.73
2023-11-18T03:43:24.063Z,98613.56
2023-11-18T03:46:12.316Z,98616.67
2023-11-18T03:48:59.244Z,98618.67
2023-11-18T03:51:46.053Z,98622.22
2023-11-18T03:54:32.811Z,98620.12
2023-11-18T03:57:19.824Z,98624.44
2023-11-18T04:00:08.312Z,98627.10
2023-11-18T04:03:00.640Z,98633.10
2023-11-18T04:05:49.187Z,98632.48
2023-11-18T04:08:36.471Z,98634.23
2023-11-18T04:11:23.584Z,98638.27
2023-11-18T04:14:10.463Z,98631.48
2023-11-18T04:16:58.957Z,98635.44
2023-11-18T04:19:46.482Z,98642.10
2023-11-18T04:22:33.449Z,98640.19
2023-11-18T04:25:20.495Z,98637.36
2023-11-18T04:28:07.103Z,98636.90
2023-11-18T04:30:54.278Z,98638.94
2023-11-18T04:33:41.653Z,98639.38
2023-11-18T04:36:28.342Z,98637.59
2023-11-18T04:39:17.302Z,98639.75
2023-11-18T04:42:04.916Z,98640.41
2023-11-18T04:44:52.304Z,98636.61
2023-11-18T04:47:39.830Z,98635.36
2023-11-18T04:50:26.917Z,98637.44
2023-11-18T04:53:13.798Z,98641.75
2023-11-18T04:56:00.969Z,98644.63
2023-11-18T04:58:48.970Z,98644.70
2023-11-18T05:01:35.883Z,98643.77
2023-11-18T05:04:23.134Z,98641.23
2023-11-18T05:07:10.135Z,98646.54
2023-11-18T05:09:57.186Z,98643.55
2023-11-18T05:12:45.025Z,98646.55
2023-11-18T05:15:32.863Z,98653.88
2023-11-18T05:18:19.824Z,98651.11
2023-11-18T05:21:07.374Z,98656.13
2023-11-18T05:23:54.521Z,98658.13
2023-11-18T05:26:41.886Z,98661.05
2023-11-18T05:29:29.996Z,98659.23
2023-11-18T05:32:17.115Z,98661.06
2023-11-18T05:35:07.650Z,98663.25
2023-11-18T05:37:55.631Z,98668.13
2023-11-18T05:40:45.104Z,98670.52
2023-11-18T05:43:42.205Z,98675.80
2023-11-18T05:46:34.123Z,98679.41
2023-11-18T05:49:23.925Z,98684.14
2023-11-18T05:52:10.707Z,98689.45
2023-11-18T05:54:57.966Z,98693.83
2023-11-18T05:57:46.357Z,98698.60
2023-11-18T06:00:39.157Z,98701.21
2023-11-18T06:03:28.530Z,98702.44
2023-11-18T06:06:21.194Z,98703.25
2023-11-18T06:09:19.147Z,98703.91
2023-11-18T06:12:10.171Z,98710.73
2023-11-18T06:14:59.370Z,98716.20
2023-11-18T06:17:47.175Z,98717.02
2023-11-18T06:20:36.500Z,98722.27
2023-11-18T06:23:26.181Z,98728.70
2023-11-18T06:26:13.296Z,98731.15
2023-11-18T06:29:00.905Z,98736.67
2023-11-18T06:31:48.230Z,98737.84
2023-11-18T06:34:35.197Z,98743.81
2023-11-18T06:37:22.276Z,98743.97
2023-11-18T06:40:17.708Z,98743.41
2023-11-18T06:43:04.782Z,98749.36
2023-11-18T06:45:52.070Z,98761.13
2023-11-18T06:48:39.234Z,98764.45
2023-11-18T06:51:28.883Z,98769.64
2023-11-18T06:54:17.088Z,98766.61
2023-11-18T06:57:04.419Z,98771.00
2023-11-18T06:59:51.526Z,98772.88
2023-11-18T07:02:39.633Z,98782.11
2023-11-18T07:05:26.412Z,98787.11
2023-11-18T07:08:14.517Z,98795.05
2023-11-18T07:11:02.818Z,98794.52
2023-11-18T07:13:50.719Z,98793.50
2023-11-18T07:16:40.382Z,98800.45
2023-11-18T07:19:27.224Z,98798.77
2023-11-18T07:22:16.333Z,98795.96
2023-11-18T07:25:04.040Z,98791.70
2023-11-18T07:27:51.113Z,98792.34
2023-11-18T07:30:38.381Z,98798.07
2023-11-18T07:33:26.024Z,98806.30
2023-11-18T07:36:13.188Z,98808.63
2023-11-18T07:39:02.408Z,98809.38
2023-11-18T07:41:49.373Z,98806.55
2023-11-18T07:44:36.135Z,98808.81
2023-11-18T07:47:23.347Z,98810.55
2023-11-18T07:50:13.662Z,98807.77
2023-11-18T07:53:00.929Z,98812.03
2023-11-18T07:55:49.273Z,98807.83
2023-11-18T07:58:39.259Z,98813.73
2023-11-18T08:01:27.544Z,98815.70
2023-11-18T08:04:15.112Z,98815.06
2023-11-18T08:07:03.222Z,98820.48
2023-11-18T08:09:50.246Z,98818.63
2023-11-18T08:12:37.837Z,98830.20
2023-11-18T08:15:24.678Z,98832.26
2023-11-18T08:18:12.604Z,98833.55
2023-11-18T08:21:01.551Z,98840.86
2023-11-18T08:23:50.652Z,98837.95
2023-11-18T08:26:38.715Z,98843.33
2023-11-18T08:29:29.391Z,98846.52
2023-11-18T08:32:16.706Z,98853.05
2023-11-18T08:35:08.869Z,98855.30
2023-11-18T08:37:55.966Z,98863.73
2023-11-18T08:40:44.343Z,98867.39
2023-11-18T08:43:31.334Z,98869.33
2023-11-18T08:46:18.496Z,98870.70
2023-11-18T08:49:12.132Z,98876.15
2023-11-18T08:52:00.994Z,98874.09
2023-11-18T08:55:07.190Z,98877.45
2023-11-18T08:57:59.868Z,98885.27
2023-11-18T09:01:05.846Z,98883.80
2023-11-18T09:03:54.213Z,98887.20
2023-11-18T09:06:41.618Z,98892.67
2023-11-18T09:09:28.834Z,98894.33
2023-11-18T09:12:16.083Z,98900.75
2023-11-18T09:15:05.075Z,98895.19
2023-11-18T09:17:51.644Z,98891.94
2023-11-18T09:20:39.454Z,98894.98
2023-11-18T09:23:28.571Z,98906.21
2023-11-18T09:26:16.161Z,98905.57
2023-11-18T09:29:03.427Z,98908.56
2023-11-18T09:31:53.744Z,98908.84
2023-11-18T09:34:43.933Z,98913.71
2023-11-18T09:37:30.907Z,98918.56
2023-11-18T09:40:19.403Z,98923.54
2023-11-18T09:43:10.741Z,98930.16
2023-11-18T09:46:02.957Z,98936.68
2023-11-18T09:48:54.531Z,98940.23
2023-11-18T09:51:43.707Z,98941.95
2023-11-18T09:54:45.630Z,98943.64
2023-11-18T09:57:35.932Z,98945.10
2023-11-18T10:00:28.834Z,98942.36
2023-11-18T10:03:17.298Z,98945.33
2023-11-18T10:06:07.658Z,98957.02
2023-11-18T10:08:55.343Z,98961.11
2023-11-18T10:11:49.102Z,98962.41
2023-11-18T10:14:36.826Z,98961.77
2023-11-18T10:17:26.394Z,98967.04
2023-11-18T10:20:17.669Z,98972.77
2023-11-18T10:23:12.206Z,98971.73
2023-11-18T10:26:02.793Z,98980.02
2023-11-18T10:28:50.931Z,98979.73
2023-11-18T10:31:38.839Z,98981.15
2023-11-18T10:34:29.302Z,98976.70
2023-11-18T10:37:18.268Z,98972.20
2023-11-18T10:40:07.104Z,98971.91
2023-11-18T10:42:54.411Z,98975.80
2023-11-18T10:45:45.164Z,98983.36
2023-11-18T10:48:34.509Z,98988.96
2023-11-18T10:51:24.766Z,99003.74
2023-11-18T10:54:18.598Z,99011.35
2023-11-18T10:57:10.768Z,99012.52
2023-11-18T11:00:34.008Z,99014.20
2023-11-18T11:03:21.048Z,99014.35
2023-11-18T11:06:20.375Z,99020.33
2023-11-18T11:09:18.479Z,99027.18
2023-11-18T11:12:16.293Z,99030.11
2023-11-18T11:15:13.524Z,99032.23
2023-11-18T11:18:10.328Z,99039.64
2023-11-18T11:21:17.944Z,99040.70
2023-11-18T11:24:13.928Z,99040.70
2023-11-18T11:27:41.250Z,99045.44
2023-11-18T11:30:39.970Z,99050.62
2023-11-18T11:33:41.964Z,99050.77
2023-11-18T11:36:37.570Z,99051.40
2023-11-18T11:39:32.313Z,99046.16
2023-11-18T11:42:22.217Z,99048.32
2023-11-18T11:45:21.616Z,99054.66
2023-11-18T11:48:16.138Z,99069.06
2023-11-18T11:51:17.678Z,99070.10
2023-11-18T11:54:16.675Z,99074.99
2023-11-18T11:57:03.979Z,99078.55
2023-11-18T11:59:54.386Z,99084.77
2023-11-18T12:02:42.034Z,99084.94
2023-11-18T12:05:29.921Z,99083.10
2023-11-18T12:08:19.925Z,99086.30
2023-11-18T12:11:11.063Z,99089.95
2023-11-18T12:14:11.060Z,99093.56
2023-11-18T12:17:09.467Z,99100.73
2023-11-18T12:20:07.944Z,99096.72
2023-11-18T12:23:16.130Z,99093.02
2023-11-18T12:26:05.337Z,99094.00
2023-11-18T12:28:55.039Z,99100.35
2023-11-18T12:31:43.666Z,99099.67
2023-11-18T12:34:50.786Z,99100.80
2023-11-18T12:38:25.793Z,99100.13
2023-11-18T12:41:44.878Z,99101.02
2023-11-18T12:44:40.419Z,99103.20
2023-11-18T12:47:30.278Z,99101.54
2023-11-18T12:50:25.826Z,99107.75
2023-11-18T12:53:16.215Z,99113.33
2023-11-18T12:56:04.822Z,99118.89
2023-11-18T12:58:52.212Z,99121.75
2023-11-18T13:01:39.161Z,99128.95
2023-11-18T13:04:28.867Z,99130.92
2023-11-18T13:07:21.454Z,99134.52
2023-11-18T13:10:09.366Z,99132.42
2023-11-18T13:12:56.337Z,99135.63
2023-11-18T13:15:45.413Z,99136.04
2023-11-18T13:18:48.721Z,99134.23
2023-11-18T13:21:37.929Z,99144.91
2023-11-18T13:24:25.069Z,99150.66
2023-11-18T13:27:15.268Z,99151.73
2023-11-18T13:30:02.144Z,99149.98
2023-11-18T13:32:51.039Z,99159.71
2023-11-18T13:35:38.373Z,99158.34
2023-11-18T13:38:26.928Z,99162.42
2023-11-18T13:41:29.834Z,99160.19
2023-11-18T13:44:44.245Z,99159.70
2023-11-18T13:47:33.821Z,99165.41
2023-11-18T13:50:21.275Z,99167.38
2023-11-18T13:53:09.769Z,99171.15
2023-11-18T13:55:56.751Z,99172.84
2023-11-18T13:58:46.856Z,99169.27
2023-11-18T14:01:35.031Z,99178.15
2023-11-18T14:04:29.912Z,99181.98
2023-11-18T14:07:19.702Z,99188.77
2023-11-18T14:10:09.594Z,99187.40
2023-11-18T14:13:24.259Z,99180.40
2023-11-18T14:16:13.961Z,99181.59
2023-11-18T14:19:01.517Z,99186.80
2023-11-18T14:21:48.275Z,99192.77
2023-11-18T14:24:36.863Z,99194.61
2023-11-18T14:27:23.949Z,99195.15
2023-11-18T14:30:11.808Z,99199.49
2023-11-18T14:32:58.764Z,99190.54
2023-11-18T14:35:49.016Z,99186.50
2023-11-18T14:38:36.028Z,99189.05
2023-11-18T14:41:29.736Z,99192.27
2023-11-18T14:44:16.916Z,99190.00
2023-11-18T14:47:04.771Z,99192.99
2023-11-18T14:49:51.720Z,99193.13
2023-11-18T14:52:43.065Z,99193.39
2023-11-18T14:55:31.039Z,99194.58
2023-11-18T14:58:18.418Z,99203.33
2023-11-18T15:01:08.269Z,99205.04
2023-11-18T15:03:57.304Z,99206.14
2023-11-18T15:06:44.438Z,99205.28
2023-11-18T15:09:33.226Z,99207.68
2023-11-18T15:12:21.281Z,99207.59
2023-11-18T15:15:15.724Z,99207.73
2023-11-18T15:18:15.124Z,99212.38
2023-11-18T15:21:02.404Z,99214.52
2023-11-18T15:23:51.414Z,99220.04
2023-11-18T15:26:38.424Z,99219.02
2023-11-18T15:29:32.733Z,99218.96
2023-11-18T15:32:20.713Z,99223.94
2023-11-18T15:35:12.412Z,99228.27
2023-11-18T15:38:02.350Z,99226.90
2023-11-18T15:40:53.133Z,99229.40
2023-11-18T15:43:40.377Z,99229.05
2023-11-18T15:46:30.355Z,99235.03
2023-11-18T15:49:20.303Z,99243.77
2023-11-18T15:52:08.579Z,99245.38
2023-11-18T15:54:55.715Z,99245.98
2023-11-18T15:57:43.737Z,99243.77
2023-11-18T16:00:31.106Z,99241.39
2023-11-18T16:03:18.078Z,99240.11
2023-11-18T16:06:07.358Z,99236.83
2023-11-18T16:08:57.176Z,99240.15
2023-11-18T16:11:44.175Z,99234.82
2023-11-18T16:14:31.102Z,99233.83
2023-11-18T16:17:18.994Z,99237.36
2023-11-18T16:20:08.179Z,99243.57
2023-11-18T16:22:56.516Z,99249.06
2023-11-18T16:25:43.423Z,99242.17
2023-11-18T16:28:32.825Z,99246.41
2023-11-18T16:31:20.070Z,99244.45
2023-11-18T16:34:07.963Z,99253.52
2023-11-18T16:36:57.886Z,99253.52
2023-11-18T16:39:48.189Z,99258.91
2023-11-18T16:42:37.792Z,99256.98
2023-11-18T16:45:26.130Z,99253.37
2023-11-18T16:48:15.491Z,99252.69
2023-11-18T16:51:02.947Z,99249.06
2023-11-18T16:53:50.990Z,99249.01
2023-11-18T16:56:37.769Z,99249.66
2023-11-18T16:59:24.651Z,99247.62
2023-11-18T17:02:13.495Z,99253.32
2023-11-18T17:05:00.836Z,99256.13
2023-11-18T17:07:50.041Z,99256.65
2023-11-18T17:10:38.276Z,99267.42
2023-11-18T17:13:26.761Z,99275.89
2023-11-18T17:16:17.746Z,99276.37
2023-11-18T17:19:05.757Z,99281.45
2023-11-18T17:21:55.560Z,99287.94
2023-11-18T17:24:43.075Z,99290.48
2023-11-18T17:27:30.054Z,99286.38
2023-11-18T17:30:17.655Z,99285.62
2023-11-18T17:33:05.056Z,99287.64
2023-11-18T17:35:51.991Z,99286.69
2023-11-18T17:38:40.664Z,99282.64
2023-11-18T17:41:27.420Z,99281.82
2023-11-18T17:44:18.020Z,99281.73
2023-11-18T17:47:05.263Z,99285.27
2023-11-18T17:49:52.848Z,99275.23
2023-11-18T17:52:45.283Z,99267.65
2023-11-18T17:55:31.918Z,99280.17
2023-11-18T17:58:19.411Z,99291.38
2023-11-18T18:01:07.766Z,99294.65
2023-11-18T18:03:55.958Z,99300.11
2023-11-18T18:06:43.458Z,99297.29
2023-11-18T18:09:30.978Z,99292.95
2023-11-18T18:12:20.371Z,99285.34
2023-11-18T18:15:09.950Z,99282.89
2023-11-18T18:17:57.326Z,99277.60
2023-11-18T18:20:49.427Z,99269.95
2023-11-18T18:23:36.887Z,99260.84
2023-11-18T18:26:23.806Z,99255.98
2023-11-18T18:29:10.757Z,99260.18
2023-11-18T18:31:57.959Z,99262.30
2023-11-18T18:34:48.001Z,99268.96
2023-11-18T18:37:34.905Z,99265.50
2023-11-18T18:40:24.303Z,99254.67
2023-11-18T18:43:11.868Z,99248.48
2023-11-18T18:45:58.797Z,99256.02
2023-11-18T18:48:45.853Z,99255.77
2023-11-18T18:51:34.662Z,99250.09
2023-11-18T18:54:22.992Z,99248.38
2023-11-18T18:57:10.002Z,99261.09
2023-11-18T18:59:57.128Z,99267.43
2023-11-18T19:02:44.608Z,99262.23
2023-11-18T19:05:32.028Z,99255.94
2023-11-18T19:08:19.414Z,99254.73
2023-11-18T19:11:07.258Z,99251.48
2023-11-18T19:13:56.240Z,99249.55
2023-11-18T19:16:44.417Z,99254.73
2023-11-18T19:19:35.322Z,99242.49
2023-11-18T19:22:22.402Z,99237.05
2023-11-18T19:25:12.636Z,99233.98
2023-11-18T19:27:59.703Z,99238.58
2023-11-18T19:30:48.985Z,99235.84
2023-11-18T19:33:35.925Z,99230.31
2023-11-18T19:36:22.853Z,99228.02
2023-11-18T19:39:09.849Z,99230.39
2023-11-18T19:41:58.339Z,99230.17
2023-11-18T19:44:45.162Z,99221.34
2023-11-18T19:47:33.567Z,99217.20
2023-11-18T19:53:15.546Z,99225.98
2023-11-18T19:56:02.741Z,99226.36
2023-11-18T19:58:50.782Z,99219.84
2023-11-18T20:01:37.490Z,99218.69
2023-11-18T20:04:28.167Z,99211.51
2023-11-18T20:07:16.460Z,99210.23
2023-11-18T20:10:05.791Z,99209.99
2023-11-18T20:12:53.941Z,99215.49
2023-11-18T20:15:40.751Z,99215.67
2023-11-18T20:18:27.952Z,99214.38
2023-11-18T20:21:17.131Z,99213.42
2023-11-18T20:24:05.536Z,99213.95
2023-11-18T20:26:52.413Z,99206.45
2023-11-18T20:29:41.944Z,99200.69
2023-11-18T20:32:29.854Z,99207.38
2023-11-18T20:35:17.065Z,99206.51
2023-11-18T20:38:04.240Z,99202.94
2023-11-18T20:40:51.565Z,99198.02
2023-11-18T20:43:38.329Z,99188.08
2023-11-18T20:46:27.915Z,99178.98
2023-11-18T20:49:18.622Z,99177.25
2023-11-18T20:52:06.884Z,99171.01
2023-11-18T20:54:53.779Z,99170.12
2023-11-18T20:57:40.891Z,99169.12
2023-11-18T21:00:27.753Z,99169.31
2023-11-18T21:03:20.985Z,99160.42
2023-11-18T21:06:08.746Z,99148.26
2023-11-18T21:08:56.183Z,99135.38
2023-11-18T21:11:43.417Z,99141.14
2023-11-18T21:14:31.774Z,99134.86
2023-11-18T21:17:19.123Z,99141.45
2023-11-18T21:20:07.403Z,99140.47
2023-11-18T21:22:54.570Z,99138.10
2023-11-18T21:25:42.967Z,99138.28
2023-11-18T21:28:29.655Z,99133.95
2023-11-18T21:31:18.093Z,99130.48
2023-11-18T21:34:06.038Z,99127.95
2023-11-18T21:36:53.417Z,99123.42
2023-11-18T21:39:40.444Z,99118.81
2023-11-18T21:42:29.932Z,99119.13
2023-11-18T21:45:16.618Z,99119.56
2023-11-18T21:48:05.720Z,99117.62
2023-11-18T21:50:54.082Z,99110.85
2023-11-18T21:53:41.798Z,99113.13
2023-11-18T21:56:36.383Z,99122.21
2023-11-18T21:59:27.608Z,99123.41
2023-11-18T22:02:14.915Z,99128.98
2023-11-18T22:05:02.248Z,99132.05
2023-11-18T22:07:49.582Z,99142.16
2023-11-18T22:10:37.217Z,99141.80
2023-11-18T22:13:27.746Z,99141.49
2023-11-18T22:16:14.635Z,99136.23
2023-11-18T22:19:01.588Z,99134.74
2023-11-18T22:21:49.778Z,99129.12
2023-11-18T22:24:37.870Z,99126.88
2023-11-18T22:27:24.499Z,99116.45
2023-11-18T22:30:17.511Z,99105.70
2023-11-18T22:33:07.017Z,99098.95
2023-11-18T22:35:55.297Z,99097.07
2023-11-18T22:38:50.097Z,99083.45
2023-11-18T22:41:37.061Z,99076.18
2023-11-18T22:44:24.592Z,99077.95
2023-11-18T22:47:12.064Z,99067.77
2023-11-18T22:50:01.256Z,99061.44
2023-11-18T22:52:54.145Z,99069.41
2023-11-18T22:55:41.601Z,99067.81
2023-11-18T22:58:29.868Z,99064.40
2023-11-18T23:01:21.484Z,99069.23
2023-11-18T23:04:13.170Z,99062.06
2023-11-18T23:07:00.887Z,99060.77
2023-11-18T23:09:47.572Z,99054.77
2023-11-18T23:12:34.569Z,99058.61
2023-11-18T23:15:23.038Z,99058.35
2023-11-18T23:18:15.959Z,99054.30
2023-11-18T23:21:03.793Z,99048.15
2023-11-18T23:23:53.145Z,99045.77
2023-11-18T23:26:39.989Z,99050.05
2023-11-18T23:29:26.937Z,99056.59
2023-11-18T23:32:13.826Z,99057.27
2023-11-18T23:35:02.277Z,99046.70
2023-11-18T23:37:50.300Z,99041.31
2023-11-18T23:40:38.826Z,99040.48
2023-11-18T23:43:25.616Z,99038.81
2023-11-18T23:46:14.548Z,99032.29
2023-11-18T23:49:01.831Z,99028.02
2023-11-18T23:51:48.942Z,99024.40
2023-11-18T23:54:37.518Z,99017.91
2023-11-18T23:57:27.507Z,99021.27
